Time;durP1;ratioP1;P1;durP2;ratioP2;P2;SDS_P1;SDS_P2;PMS_P1;PMS_P2;Temp;Humidity;BMP_temperature;BMP_pressure;BME280_temperature;BME280_humidity;BME280_pressure;Samples;Min_cycle;Max_cycle;Signal;HPM_P1;HPM_P2
2023/04/09 00:00:26;;;;;;;20.07;11.73;;;;;;;6.95;100.00;95355.41;5008920;28;20246;-73
2023/04/09 00:02:51;;;;;;;20.33;12.07;;;;;;;6.93;100.00;95363.38;5007111;28;20284;-72
2023/04/09 00:05:17;;;;;;;20.23;11.90;;;;;;;6.95;100.00;95364.03;5030620;28;20337;-72
2023/04/09 00:07:42;;;;;;;21.80;11.80;;;;;;;6.94;100.00;95361.59;5017405;28;20230;-72
2023/04/09 00:10:08;;;;;;;17.93;11.40;;;;;;;7.01;100.00;95367.75;5018860;28;20248;-73
2023/04/09 00:12:33;;;;;;;19.47;11.37;;;;;;;7.00;100.00;95363.53;5010968;28;20225;-71
2023/04/09 00:14:59;;;;;;;18.40;11.40;;;;;;;7.03;100.00;95371.00;5006965;28;20317;-71
2023/04/09 00:17:24;;;;;;;21.10;11.43;;;;;;;7.08;100.00;95369.53;5018779;28;20226;-71
2023/04/09 00:19:50;;;;;;;19.90;11.73;;;;;;;6.99;100.00;95369.72;5016625;28;20238;-71
2023/04/09 00:22:16;;;;;;;19.00;11.83;;;;;;;7.04;100.00;95370.03;5029052;28;20323;-71
2023/04/09 00:24:41;;;;;;;19.50;11.87;;;;;;;7.04;100.00;95370.84;4995327;28;20243;-72
2023/04/09 00:27:07;;;;;;;19.60;11.50;;;;;;;7.03;100.00;95376.19;5005326;28;20237;-72
2023/04/09 00:29:32;;;;;;;20.73;12.10;;;;;;;7.05;100.00;95382.03;4995289;28;20248;-72
2023/04/09 00:31:58;;;;;;;19.10;11.37;;;;;;;7.10;100.00;95372.78;5006626;28;20248;-73
2023/04/09 00:34:23;;;;;;;21.70;12.43;;;;;;;7.08;100.00;95373.91;5031643;28;20260;-71
2023/04/09 00:36:49;;;;;;;21.30;11.90;;;;;;;6.98;100.00;95373.28;5003140;28;20226;-71
2023/04/09 00:39:15;;;;;;;16.20;11.00;;;;;;;6.87;100.00;95371.03;5018268;28;20242;-72
2023/04/09 00:41:40;;;;;;;18.73;11.57;;;;;;;6.97;100.00;95363.88;5033458;28;20296;-71
2023/04/09 00:44:06;;;;;;;19.30;11.07;;;;;;;6.83;100.00;95367.16;5027127;28;20237;-72
2023/04/09 00:46:31;;;;;;;18.13;11.23;;;;;;;6.81;100.00;95374.31;5020302;28;20316;-72
2023/04/09 00:48:57;;;;;;;17.00;10.90;;;;;;;7.00;100.00;95373.97;5021623;28;20230;-72
2023/04/09 00:51:22;;;;;;;17.57;10.47;;;;;;;6.99;100.00;95370.53;5019241;28;21008;-72
2023/04/09 00:53:48;;;;;;;16.77;10.53;;;;;;;6.96;100.00;95360.44;5021093;28;20233;-72
2023/04/09 00:56:14;;;;;;;15.73;10.00;;;;;;;6.97;100.00;95362.09;4998395;28;20283;-72
2023/04/09 00:58:40;;;;;;;15.57;10.03;;;;;;;6.88;100.00;95359.66;5023761;28;20237;-72
2023/04/09 01:01:06;;;;;;;16.30;10.07;;;;;;;6.93;100.00;95363.38;5016212;28;20233;-73
2023/04/09 01:03:31;;;;;;;15.87;9.93;;;;;;;7.07;100.00;95367.09;5008149;28;20777;-72
2023/04/09 01:06:07;;;;;;;16.03;9.70;;;;;;;7.22;100.00;95370.63;5007464;28;20221;-72
2023/04/09 01:08:40;;;;;;;14.70;9.10;;;;;;;7.19;100.00;95373.53;5012721;28;20268;-72
2023/04/09 01:11:08;;;;;;;16.20;10.10;;;;;;;7.23;100.00;95374.84;4999728;28;20256;-73
2023/04/09 01:13:39;;;;;;;15.03;9.40;;;;;;;7.17;100.00;95372.91;5028387;28;20244;-73
2023/04/09 01:16:08;;;;;;;13.90;8.87;;;;;;;7.11;100.00;95376.19;5030359;28;20284;-72
2023/04/09 01:18:39;;;;;;;16.40;9.77;;;;;;;7.13;100.00;95379.44;5015978;28;20270;-73
2023/04/09 01:21:06;;;;;;;13.70;8.40;;;;;;;7.11;100.00;95373.59;5011259;28;20256;-72
2023/04/09 01:23:42;;;;;;;15.30;9.00;;;;;;;7.17;100.00;95373.72;5015459;28;20327;-73
2023/04/09 01:26:18;;;;;;;13.27;8.63;;;;;;;7.16;100.00;95381.72;5024807;28;20232;-72
2023/04/09 01:28:44;;;;;;;13.73;9.03;;;;;;;7.23;100.00;95380.88;5036972;28;20242;-73
2023/04/09 01:31:14;;;;;;;14.33;9.00;;;;;;;7.31;100.00;95382.63;5026584;28;20967;-72
2023/04/09 01:33:43;;;;;;;12.83;8.33;;;;;;;7.33;100.00;95378.09;5018582;28;20707;-73
2023/04/09 01:36:09;;;;;;;13.60;8.70;;;;;;;7.12;100.00;95381.22;5010924;28;20310;-73
2023/04/09 01:38:35;;;;;;;16.73;9.63;;;;;;;7.18;100.00;95383.16;5017831;28;20234;-72
2023/04/09 01:41:00;;;;;;;14.57;8.77;;;;;;;7.29;100.00;95379.38;5009532;28;20256;-73
2023/04/09 01:43:26;;;;;;;13.43;8.83;;;;;;;7.29;100.00;95377.59;5026719;28;20865;-72
2023/04/09 01:45:52;;;;;;;16.93;10.00;;;;;;;7.27;100.00;95384.75;5008860;28;20592;-72
2023/04/09 01:48:17;;;;;;;14.97;9.17;;;;;;;7.23;100.00;95383.47;5021368;28;20233;-72
2023/04/09 01:50:43;;;;;;;14.27;9.10;;;;;;;7.16;100.00;95389.53;5010107;28;20222;-73
2023/04/09 01:53:08;;;;;;;15.43;9.47;;;;;;;7.26;100.00;95382.34;5031936;28;20229;-72
2023/04/09 01:55:34;;;;;;;14.80;9.27;;;;;;;7.14;100.00;95384.47;5033148;28;20234;-72
2023/04/09 01:57:59;;;;;;;15.33;9.57;;;;;;;7.02;100.00;95372.00;5023323;28;20230;-72
2023/04/09 02:00:28;;;;;;;14.47;9.13;;;;;;;6.96;100.00;95370.84;5026144;28;20268;-72
2023/04/09 02:03:19;;;;;;;14.43;9.30;;;;;;;6.97;100.00;95379.47;5019101;28;20233;-73
2023/04/09 02:05:48;;;;;;;16.93;10.13;;;;;;;6.76;100.00;95373.00;5028197;28;20253;-72
2023/04/09 02:08:16;;;;;;;15.73;9.83;;;;;;;6.85;100.00;95373.00;5019024;28;20238;-73
2023/04/09 02:10:41;;;;;;;15.73;9.50;;;;;;;6.82;100.00;95378.53;5012728;28;20295;-73
2023/04/09 02:13:06;;;;;;;18.10;10.10;;;;;;;6.85;100.00;95373.81;5022425;28;20238;-73
2023/04/09 02:15:33;;;;;;;17.20;10.10;;;;;;;6.91;100.00;95377.53;5018386;28;20233;-72
2023/04/09 02:17:58;;;;;;;16.07;10.10;;;;;;;6.97;100.00;95375.09;5006855;28;20226;-72
2023/04/09 02:20:24;;;;;;;16.07;10.17;;;;;;;6.98;100.00;95371.50;5019914;28;20241;-72
2023/04/09 02:22:50;;;;;;;17.13;10.53;;;;;;;7.02;100.00;95374.59;5041858;28;20727;-72
2023/04/09 02:25:15;;;;;;;17.67;10.53;;;;;;;6.97;100.00;95371.69;5010071;28;20241;-73
2023/04/09 02:27:41;;;;;;;17.40;10.20;;;;;;;7.02;100.00;95377.19;5013451;28;20288;-73
2023/04/09 02:30:07;;;;;;;17.23;10.33;;;;;;;7.01;100.00;95373.78;5011686;28;20328;-72
2023/04/09 02:32:32;;;;;;;16.97;9.83;;;;;;;7.07;100.00;95374.91;5014547;28;20631;-72
2023/04/09 02:34:58;;;;;;;16.67;10.30;;;;;;;7.02;100.00;95374.59;5018336;28;20241;-72
2023/04/09 02:37:23;;;;;;;16.77;9.87;;;;;;;6.98;100.00;95378.50;5005178;28;20279;-71
2023/04/09 02:39:49;;;;;;;15.60;10.17;;;;;;;6.96;100.00;95375.25;5017948;28;20316;-72
2023/04/09 02:42:14;;;;;;;17.83;9.87;;;;;;;6.88;100.00;95377.88;5011426;28;20237;-73
2023/04/09 02:44:40;;;;;;;16.37;10.33;;;;;;;6.81;100.00;95372.50;5014865;28;20566;-72
2023/04/09 02:47:05;;;;;;;17.63;10.43;;;;;;;6.85;100.00;95373.81;5030854;28;20218;-72
2023/04/09 02:49:31;;;;;;;17.07;10.07;;;;;;;6.88;100.00;95373.47;5017390;28;20237;-73
2023/04/09 02:51:56;;;;;;;16.43;9.93;;;;;;;6.84;100.00;95372.19;5028673;28;20234;-73
2023/04/09 02:54:22;;;;;;;18.83;10.23;;;;;;;6.78;100.00;95373.66;5013324;28;20240;-72
2023/04/09 02:56:47;;;;;;;17.73;10.70;;;;;;;6.73;100.00;95365.53;5031904;28;20230;-72
2023/04/09 02:59:12;;;;;;;15.37;9.67;;;;;;;6.74;100.00;95366.34;5011841;28;20238;-73
2023/04/09 03:01:38;;;;;;;17.77;10.17;;;;;;;6.77;100.00;95369.44;5025460;28;20230;-73
2023/04/09 03:04:04;;;;;;;17.97;9.80;;;;;;;6.76;100.00;95364.38;4975204;28;20328;-72
2023/04/09 03:06:29;;;;;;;17.43;10.23;;;;;;;6.58;100.00;95367.19;4978194;28;20626;-72
2023/04/09 03:08:55;;;;;;;16.93;10.57;;;;;;;6.71;100.00;95359.69;4959297;28;20231;-72
2023/04/09 03:11:20;;;;;;;18.10;10.43;;;;;;;6.54;100.00;95368.47;5003404;28;20234;-73
2023/04/09 03:13:46;;;;;;;16.97;10.30;;;;;;;6.67;100.00;95363.59;5011301;28;20230;-73
2023/04/09 03:16:11;;;;;;;19.43;11.00;;;;;;;6.54;100.00;95368.47;4970470;28;20235;-72
2023/04/09 03:18:37;;;;;;;18.77;11.27;;;;;;;6.57;100.00;95362.13;4969334;28;20226;-72
2023/04/09 03:21:09;;;;;;;20.20;11.33;;;;;;;6.59;100.00;95366.19;4975688;28;20246;-73
2023/04/09 03:23:34;;;;;;;17.30;10.47;;;;;;;6.34;100.00;95366.38;4984793;28;20315;-73
2023/04/09 03:26:02;;;;;;;19.70;11.50;;;;;;;6.40;100.00;95368.34;4989154;28;20235;-73
2023/04/09 03:28:28;;;;;;;20.83;11.17;;;;;;;6.34;100.00;95367.19;4972351;28;20677;-72
2023/04/09 03:30:54;;;;;;;21.07;11.37;;;;;;;6.40;100.00;95368.34;4989527;28;20289;-74
2023/04/09 03:33:19;;;;;;;20.63;11.47;;;;;;;6.46;100.00;95368.50;4974566;28;20902;-72
2023/04/09 03:35:45;;;;;;;18.43;11.30;;;;;;;6.42;100.00;95367.19;4996758;28;20257;-73
2023/04/09 03:38:10;;;;;;;18.93;11.27;;;;;;;6.33;100.00;95378.53;5010599;28;20232;-73
2023/04/09 03:40:36;;;;;;;19.20;11.30;;;;;;;6.30;100.00;95373.69;5013969;28;20241;-72
2023/04/09 03:43:03;;;;;;;20.97;11.57;;;;;;;6.32;100.00;95374.34;5005925;28;20257;-72
2023/04/09 03:45:28;;;;;;;23.50;12.70;;;;;;;6.29;100.00;95369.47;5026994;28;20234;-72
2023/04/09 03:47:54;;;;;;;22.57;12.23;;;;;;;6.26;100.00;95366.38;5005149;28;20585;-73
2023/04/09 03:50:19;;;;;;;23.00;12.90;;;;;;;6.31;100.00;95370.09;5024020;28;20237;-73
2023/04/09 03:52:45;;;;;;;20.13;12.20;;;;;;;6.23;100.00;95372.72;5006144;28;20272;-71
2023/04/09 03:55:10;;;;;;;22.27;12.70;;;;;;;6.17;100.00;95372.53;5023060;28;20229;-72
2023/04/09 03:57:36;;;;;;;20.43;12.03;;;;;;;6.24;100.00;95384.72;5011593;28;20234;-72
2023/04/09 04:00:02;;;;;;;21.40;12.37;;;;;;;6.26;100.00;95382.78;4999728;28;20242;-71
2023/04/09 04:02:32;;;;;;;20.47;12.07;;;;;;;6.27;100.00;95383.59;5002227;28;20225;-71
2023/04/09 04:04:58;;;;;;;22.80;12.63;;;;;;;6.29;100.00;95384.25;5024821;28;20233;-71
2023/04/09 04:07:23;;;;;;;22.83;12.53;;;;;;;6.15;100.00;95387.47;4999184;28;20242;-72
2023/04/09 04:09:49;;;;;;;20.90;12.37;;;;;;;6.21;100.00;95387.63;5027744;28;20237;-71
2023/04/09 04:12:14;;;;;;;22.60;12.87;;;;;;;6.31;100.00;95380.50;5031113;28;20230;-72
2023/04/09 04:14:40;;;;;;;24.37;12.87;;;;;;;6.22;100.00;95386.69;5008758;28;20240;-72
2023/04/09 04:17:05;;;;;;;24.63;13.83;;;;;;;6.23;100.00;95396.13;5003366;28;20797;-71
2023/04/09 04:19:31;;;;;;;27.17;14.60;;;;;;;6.19;100.00;95391.38;5013228;28;20241;-71
2023/04/09 04:21:56;;;;;;;25.80;13.80;;;;;;;6.30;100.00;95388.47;5028742;28;20811;-70
2023/04/09 04:24:21;;;;;;;27.80;14.47;;;;;;;6.32;100.00;95389.94;5031280;28;20258;-72
2023/04/09 04:26:47;;;;;;;27.40;14.00;;;;;;;6.43;100.00;95387.00;5002122;28;20241;-72
2023/04/09 04:29:12;;;;;;;24.70;13.80;;;;;;;6.53;100.00;95387.66;5028653;28;20233;-71
2023/04/09 04:31:38;;;;;;;25.63;14.23;;;;;;;6.52;100.00;95393.03;5035503;28;20245;-71
2023/04/09 04:34:03;;;;;;;25.23;14.33;;;;;;;6.53;100.00;95389.44;5002159;28;20245;-72
2023/04/09 04:36:29;;;;;;;27.20;15.00;;;;;;;6.58;100.00;95387.16;5003591;28;20234;-72
2023/04/09 04:38:55;;;;;;;26.80;15.00;;;;;;;6.58;100.00;95395.78;5014767;28;20240;-72
2023/04/09 04:41:20;;;;;;;28.77;14.50;;;;;;;6.53;100.00;95394.66;4997311;28;20324;-72
2023/04/09 04:43:46;;;;;;;26.73;14.97;;;;;;;6.69;100.00;95390.25;5027183;28;20599;-72
2023/04/09 04:46:11;;;;;;;30.23;15.23;;;;;;;6.67;100.00;95396.59;5022296;28;20782;-72
2023/04/09 04:48:37;;;;;;;30.23;15.43;;;;;;;6.64;100.00;95399.50;5006874;28;20230;-72
2023/04/09 04:51:02;;;;;;;29.63;15.77;;;;;;;6.77;100.00;95395.44;5010227;28;20738;-72
2023/04/09 04:53:28;;;;;;;28.83;15.93;;;;;;;6.77;100.00;95394.63;5015849;28;20240;-72
2023/04/09 04:55:53;;;;;;;31.57;16.80;;;;;;;6.68;100.00;95399.03;5013470;28;20240;-72
2023/04/09 04:58:19;;;;;;;32.23;17.03;;;;;;;6.78;100.00;95396.28;5011287;28;20234;-71
2023/04/09 05:00:44;;;;;;;35.73;17.80;;;;;;;6.87;100.00;95390.06;5017808;28;20262;-73
2023/04/09 05:03:10;;;;;;;33.83;17.43;;;;;;;6.83;100.00;95398.38;5014757;28;20230;-71
2023/04/09 05:05:36;;;;;;;32.40;16.97;;;;;;;6.91;100.00;95401.75;5010408;28;20234;-71
2023/04/09 05:08:01;;;;;;;33.43;17.53;;;;;;;7.00;100.00;95402.56;5014037;28;20225;-72
2023/04/09 05:10:27;;;;;;;35.33;17.10;;;;;;;7.20;100.00;95399.44;5004252;28;20331;-70
2023/04/09 05:12:52;;;;;;;33.80;16.70;;;;;;;7.36;100.00;95408.97;5021530;28;20733;-71
2023/04/09 05:15:18;;;;;;;33.23;17.43;;;;;;;7.84;100.00;95400.97;5016111;28;20253;-72
2023/04/09 05:17:43;;;;;;;33.03;16.87;;;;;;;8.05;98.98;95406.38;5035703;28;20229;-72
2023/04/09 05:20:10;;;;;;;34.13;17.27;;;;;;;8.20;98.62;95401.25;5016535;28;20283;-72
2023/04/09 05:22:35;;;;;;;34.30;17.43;;;;;;;8.30;98.17;95407.06;5003686;28;20221;-71
2023/04/09 05:25:01;;;;;;;31.27;16.77;;;;;;;7.74;99.25;95397.75;5009111;28;20229;-72
2023/04/09 05:27:27;;;;;;;30.60;15.93;;;;;;;7.59;100.00;95412.50;5001620;28;20261;-71
2023/04/09 05:29:52;;;;;;;29.73;15.93;;;;;;;7.62;100.00;95403.53;5050125;28;20283;-71
2023/04/09 05:32:18;;;;;;;32.07;16.20;;;;;;;7.58;100.00;95397.81;5019640;28;20295;-72
2023/04/09 05:34:44;;;;;;;28.23;14.77;;;;;;;7.51;100.00;95404.69;5006977;28;20237;-72
2023/04/09 05:37:09;;;;;;;30.93;14.77;;;;;;;7.41;100.00;95402.28;5007238;28;20320;-70
2023/04/09 05:39:35;;;;;;;29.40;15.23;;;;;;;7.68;99.83;95402.84;5017168;28;20814;-72
2023/04/09 05:42:01;;;;;;;30.90;15.63;;;;;;;7.82;99.99;95402.94;5022794;28;21009;-72
2023/04/09 05:44:26;;;;;;;26.90;14.37;;;;;;;7.61;98.89;95405.31;4998754;28;20234;-72
2023/04/09 05:46:52;;;;;;;31.30;14.87;;;;;;;7.70;99.85;95411.28;5038741;28;20230;-73
2023/04/09 05:49:18;;;;;;;26.97;14.03;;;;;;;7.67;98.78;95414.22;5023035;28;20273;-72
2023/04/09 05:51:43;;;;;;;29.50;14.67;;;;;;;7.77;99.60;95407.03;5021279;28;20233;-72
2023/04/09 05:54:09;;;;;;;28.03;14.17;;;;;;;8.21;98.43;95408.09;5007955;28;20764;-72
2023/04/09 05:56:34;;;;;;;28.67;14.37;;;;;;;8.32;96.93;95409.50;5002991;28;20238;-72
2023/04/09 05:59:00;;;;;;;29.37;14.47;;;;;;;8.26;97.88;95405.81;5022588;28;20683;-72
2023/04/09 06:01:26;;;;;;;28.83;14.37;;;;;;;8.39;96.36;95402.59;5037179;28;20230;-72
2023/04/09 06:03:51;;;;;;;26.10;13.50;;;;;;;8.40;95.29;95409.44;5009105;28;20615;-71
2023/04/09 06:06:17;;;;;;;30.07;13.93;;;;;;;8.41;95.61;95408.44;5013137;28;20225;-73
2023/04/09 06:08:43;;;;;;;30.27;14.87;;;;;;;8.72;95.12;95411.78;5034556;28;20261;-72
2023/04/09 06:11:10;;;;;;;31.43;15.20;;;;;;;8.87;94.49;95407.44;5002770;28;20233;-72
2023/04/09 06:13:35;;;;;;;27.67;14.80;;;;;;;8.94;93.29;95407.53;5022479;28;20238;-71
2023/04/09 06:16:03;;;;;;;28.77;14.63;;;;;;;9.02;92.86;95405.66;5035329;28;20230;-72
2023/04/09 06:18:32;;;;;;;28.37;14.63;;;;;;;8.76;93.13;95415.69;5001102;28;20234;-71
2023/04/09 06:21:05;;;;;;;28.57;14.03;;;;;;;8.81;93.87;95414.16;5018182;28;20975;-72
2023/04/09 06:23:31;;;;;;;26.30;13.57;;;;;;;8.49;93.75;95413.63;5007764;28;20233;-72
2023/04/09 06:25:56;;;;;;;25.23;13.13;;;;;;;8.92;92.10;95414.72;5019314;28;20221;-73
2023/04/09 06:28:22;;;;;;;22.60;12.67;;;;;;;8.99;92.44;95408.63;5016046;28;20237;-73
2023/04/09 06:30:47;;;;;;;23.70;13.33;;;;;;;8.65;93.00;95411.69;5016435;28;20668;-72
2023/04/09 06:33:13;;;;;;;30.77;14.80;;;;;;;8.87;92.05;95412.66;5027352;28;20233;-72
2023/04/09 06:35:39;;;;;;;27.00;14.30;;;;;;;8.94;91.83;95410.97;5017236;28;20233;-73
2023/04/09 06:38:05;;;;;;;26.93;13.60;;;;;;;9.35;90.46;95406.16;5014264;28;20230;-73
2023/04/09 06:40:31;;;;;;;24.40;13.77;;;;;;;9.00;91.17;95417.28;5034067;28;20766;-72
2023/04/09 06:42:56;;;;;;;25.83;14.33;;;;;;;8.88;91.59;95422.13;5008214;28;20225;-73
2023/04/09 06:45:22;;;;;;;25.53;13.87;;;;;;;9.03;90.88;95417.72;5002463;28;20241;-72
2023/04/09 06:47:48;;;;;;;25.37;14.13;;;;;;;9.03;90.94;95422.94;5018100;28;20261;-72
2023/04/09 06:50:13;;;;;;;25.97;14.93;;;;;;;9.05;90.65;95428.78;5002385;28;20229;-72
2023/04/09 06:52:39;;;;;;;26.27;14.27;;;;;;;9.11;90.73;95422.88;5025481;28;20230;-73
2023/04/09 06:55:05;;;;;;;25.27;14.47;;;;;;;9.26;88.88;95423.72;4997555;28;20652;-72
2023/04/09 06:57:30;;;;;;;22.33;12.43;;;;;;;9.07;88.50;95419.00;5017893;28;20257;-74
2023/04/09 06:59:56;;;;;;;26.67;12.43;;;;;;;9.45;88.23;95423.19;5014788;28;20291;-72
2023/04/09 07:02:21;;;;;;;21.33;12.47;;;;;;;9.11;89.45;95425.50;5020253;28;20226;-72
2023/04/09 07:04:47;;;;;;;22.80;12.63;;;;;;;9.28;88.12;95426.97;5007772;28;20627;-72
2023/04/09 07:07:12;;;;;;;22.57;13.07;;;;;;;9.40;87.48;95428.13;4997185;28;20283;-71
2023/04/09 07:09:38;;;;;;;21.73;13.07;;;;;;;9.46;86.95;95429.19;5018671;28;20233;-73
2023/04/09 07:12:03;;;;;;;24.90;14.10;;;;;;;9.47;88.75;95429.03;5015683;28;20292;-72
2023/04/09 07:14:29;;;;;;;23.60;13.73;;;;;;;9.53;87.20;95430.09;5019692;28;20230;-72
2023/04/09 07:16:54;;;;;;;23.13;13.10;;;;;;;9.93;86.04;95431.44;5008651;28;20241;-72
2023/04/09 07:19:20;;;;;;;25.23;13.00;;;;;;;10.09;83.49;95432.03;5004186;28;20302;-71
2023/04/09 07:21:46;;;;;;;20.27;11.43;;;;;;;9.64;84.91;95434.06;5016907;28;20294;-72
2023/04/09 07:24:11;;;;;;;21.77;12.33;;;;;;;9.55;85.73;95433.38;4999583;28;20664;-72
2023/04/09 07:26:37;;;;;;;24.83;13.50;;;;;;;9.71;87.14;95430.56;5016879;28;20222;-72
2023/04/09 07:29:03;;;;;;;25.03;13.50;;;;;;;9.80;84.77;95431.25;5018475;28;20239;-72
2023/04/09 07:31:28;;;;;;;29.20;14.57;;;;;;;10.17;84.16;95436.38;5002614;28;20276;-72
2023/04/09 07:33:54;;;;;;;22.30;12.63;;;;;;;9.99;83.55;95444.59;5000470;28;20246;-72
2023/04/09 07:36:19;;;;;;;19.60;11.63;;;;;;;9.82;82.86;95424.03;5005889;28;20234;-71
2023/04/09 07:38:45;;;;;;;18.00;10.90;;;;;;;9.65;82.44;95433.88;5019000;28;20236;-73
2023/04/09 07:41:10;;;;;;;22.27;12.73;;;;;;;10.26;82.17;95431.84;5021428;28;20390;-72
2023/04/09 07:43:36;;;;;;;19.97;11.83;;;;;;;10.40;79.33;95444.06;5012444;28;20359;-72
2023/04/09 07:46:01;;;;;;;17.00;9.77;;;;;;;10.12;78.32;95446.59;5015416;28;20237;-71
2023/04/09 07:48:27;;;;;;;18.90;11.10;;;;;;;10.16;79.66;95447.84;4998517;28;20570;-72
2023/04/09 07:50:52;;;;;;;21.27;11.87;;;;;;;10.29;77.87;95447.19;5015236;28;20234;-72
2023/04/09 07:53:18;;;;;;;19.30;10.63;;;;;;;9.85;79.18;95455.88;5035156;28;20299;-72
2023/04/09 07:55:43;;;;;;;18.80;10.63;;;;;;;10.11;78.38;95456.22;5014348;28;20719;-72
2023/04/09 07:58:09;;;;;;;17.33;10.33;;;;;;;9.83;79.05;95451.81;5017145;28;20234;-72
2023/04/09 08:00:35;;;;;;;19.33;10.10;;;;;;;10.03;77.91;95447.66;5031984;28;20982;-72
2023/04/09 08:03:02;;;;;;;16.80;9.87;;;;;;;9.90;78.55;95452.72;5029827;28;20755;-74
2023/04/09 08:05:30;;;;;;;22.63;11.07;;;;;;;9.92;79.90;95459.38;5024966;28;20234;-73
2023/04/09 08:07:56;;;;;;;18.27;10.53;;;;;;;9.57;80.49;95461.91;5000013;28;20246;-72
2023/04/09 08:10:21;;;;;;;19.50;11.03;;;;;;;9.75;81.06;95460.56;5011001;28;21020;-73
2023/04/09 08:12:47;;;;;;;20.47;11.10;;;;;;;9.75;81.57;95464.97;5030991;28;20295;-73
2023/04/09 08:15:13;;;;;;;20.23;11.57;;;;;;;9.93;81.77;95468.03;5019625;28;20684;-71
2023/04/09 08:17:38;;;;;;;21.27;11.77;;;;;;;9.97;81.34;95464.06;5031427;28;20244;-73
2023/04/09 08:20:05;;;;;;;18.07;10.83;;;;;;;10.03;80.42;95464.13;5030525;28;20241;-72
2023/04/09 08:22:30;;;;;;;22.50;11.87;;;;;;;10.17;80.45;95459.94;5014063;28;20282;-72
2023/04/09 08:24:57;;;;;;;20.67;11.63;;;;;;;9.91;80.88;95470.81;5030479;28;20627;-72
2023/04/09 08:27:24;;;;;;;24.50;12.27;;;;;;;10.18;80.58;95468.56;5007390;28;20258;-73
2023/04/09 08:29:50;;;;;;;20.23;11.50;;;;;;;9.87;79.59;95473.97;5015412;28;20739;-73
2023/04/09 08:32:15;;;;;;;23.87;12.00;;;;;;;10.47;79.19;95469.31;5014293;28;20260;-72
2023/04/09 08:34:41;;;;;;;18.93;11.17;;;;;;;10.72;77.68;95467.94;5033106;28;20237;-72
2023/04/09 08:37:10;;;;;;;18.77;11.20;;;;;;;10.68;77.00;95466.72;5028141;28;20272;-72
2023/04/09 08:39:35;;;;;;;19.93;11.90;;;;;;;10.36;77.80;95467.19;5007418;28;20230;-73
2023/04/09 08:42:01;;;;;;;20.37;11.07;;;;;;;10.35;78.96;95468.19;5027723;28;20247;-73
2023/04/09 08:44:30;;;;;;;21.50;12.10;;;;;;;10.67;78.13;95467.72;4993377;28;20280;-73
2023/04/09 08:46:55;;;;;;;20.60;11.50;;;;;;;10.68;77.66;95465.91;5012822;28;20292;-73
2023/04/09 08:49:21;;;;;;;18.77;10.87;;;;;;;10.67;77.71;95469.53;5033794;28;20669;-73
2023/04/09 08:51:47;;;;;;;20.20;11.00;;;;;;;10.69;77.29;95464.91;5032793;28;20659;-72
2023/04/09 08:54:17;;;;;;;22.13;11.93;;;;;;;10.91;77.93;95463.09;5035141;28;20663;-73
2023/04/09 08:56:47;;;;;;;18.47;10.80;;;;;;;10.69;77.40;95455.25;5018515;28;20261;-73
2023/04/09 08:59:18;;;;;;;20.37;11.07;;;;;;;10.77;77.15;95457.72;5006182;28;20241;-72
2023/04/09 09:01:46;;;;;;;19.70;11.03;;;;;;;10.96;77.48;95452.88;5035109;28;20937;-73
2023/04/09 09:04:12;;;;;;;20.63;11.20;;;;;;;11.13;77.43;95457.63;5029700;28;20240;-72
2023/04/09 09:06:38;;;;;;;21.63;11.00;;;;;;;10.90;76.79;95451.00;5029941;28;20222;-71
2023/04/09 09:09:08;;;;;;;19.80;11.07;;;;;;;10.98;77.54;95443.03;5028956;28;20240;-72
2023/04/09 09:11:35;;;;;;;19.33;10.90;;;;;;;11.31;77.04;95454.56;5006108;28;20314;-72
2023/04/09 09:14:01;;;;;;;21.27;11.63;;;;;;;11.67;75.82;95446.53;5014971;28;20237;-72
2023/04/09 09:16:27;;;;;;;21.03;12.00;;;;;;;11.62;75.97;95441.06;5015960;28;20264;-73
2023/04/09 09:18:54;;;;;;;19.13;11.27;;;;;;;11.58;76.11;95437.22;5027486;28;20947;-72
2023/04/09 09:21:20;;;;;;;19.17;11.30;;;;;;;11.22;75.17;95446.03;5017908;28;20884;-71
2023/04/09 09:23:47;;;;;;;19.93;11.67;;;;;;;11.11;76.21;95441.31;5030620;28;20291;-73
2023/04/09 09:26:13;;;;;;;18.23;11.40;;;;;;;11.21;76.58;95438.34;4989725;28;20281;-72
2023/04/09 09:28:39;;;;;;;19.97;12.03;;;;;;;11.38;76.65;95437.06;5004621;28;20325;-72
2023/04/09 09:31:10;;;;;;;19.93;11.97;;;;;;;11.46;76.74;95429.06;5026881;28;20226;-72
2023/04/09 09:33:36;;;;;;;23.13;12.00;;;;;;;11.95;75.45;95421.09;5029217;28;20238;-72
2023/04/09 09:36:04;;;;;;;20.57;12.00;;;;;;;12.14;73.48;95426.41;5027942;28;20624;-72
2023/04/09 09:38:30;;;;;;;19.23;11.50;;;;;;;12.35;73.20;95422.84;4993868;28;20241;-72
2023/04/09 09:40:55;;;;;;;18.43;11.27;;;;;;;12.34;72.12;95426.47;4989308;28;20239;-71
2023/04/09 09:43:21;;;;;;;19.43;12.20;;;;;;;12.36;73.74;95419.22;5013236;28;20233;-73
2023/04/09 09:45:47;;;;;;;22.93;10.97;;;;;;;12.61;72.63;95422.91;5015342;28;20248;-73
2023/04/09 09:48:13;;;;;;;19.47;11.83;;;;;;;13.09;71.86;95420.94;5002736;28;21018;-72
2023/04/09 09:50:59;;;;;;;17.90;11.13;;;;;;;12.52;72.82;95415.41;5042636;28;20233;-72
2023/04/09 09:53:26;;;;;;;18.07;10.33;;;;;;;12.33;71.26;95405.66;5037838;28;20268;-72
2023/04/09 09:55:51;;;;;;;23.93;11.60;;;;;;;12.96;71.41;95410.41;5032082;28;20249;-72
2023/04/09 09:58:22;;;;;;;17.03;10.43;;;;;;;13.08;69.97;95415.91;5035674;28;20225;-72
2023/04/09 10:00:50;;;;;;;18.70;10.90;;;;;;;13.11;69.58;95400.53;5001501;28;20230;-72
2023/04/09 10:03:20;;;;;;;17.27;10.77;;;;;;;13.17;69.58;95406.78;5018360;28;20305;-72
2023/04/09 10:05:45;;;;;;;17.87;10.07;;;;;;;13.37;68.29;95402.34;5016552;28;20234;-73
2023/04/09 10:08:11;;;;;;;16.67;10.90;;;;;;;13.63;67.48;95399.66;5018467;28;20225;-72
2023/04/09 10:10:38;;;;;;;14.77;9.67;;;;;;;13.60;65.82;95401.88;5021596;28;20241;-71
2023/04/09 10:13:05;;;;;;;15.97;9.70;;;;;;;13.93;66.26;95395.50;5022290;28;20279;-73
2023/04/09 10:15:30;;;;;;;17.13;9.97;;;;;;;13.73;65.86;95405.28;5014620;28;20665;-72
2023/04/09 10:17:56;;;;;;;15.70;9.43;;;;;;;13.42;66.76;95387.53;5033323;28;20237;-73
2023/04/09 10:20:25;;;;;;;14.80;9.73;;;;;;;13.41;66.20;95391.22;5033508;28;20609;-73
2023/04/09 10:22:50;;;;;;;14.90;8.60;;;;;;;13.22;66.18;95389.41;5003775;28;20230;-72
2023/04/09 10:25:16;;;;;;;15.33;8.97;;;;;;;13.64;65.05;95392.56;5032852;28;20252;-73
2023/04/09 10:27:44;;;;;;;13.07;9.03;;;;;;;13.69;64.46;95390.13;5029922;28;20233;-73
2023/04/09 10:30:46;;;;;;;14.23;9.10;;;;;;;13.23;65.34;95391.00;5009157;28;20247;-72
2023/04/09 10:33:15;;;;;;;14.97;10.03;;;;;;;14.08;64.25;95382.09;4999767;28;20593;-72
2023/04/09 10:35:42;;;;;;;14.87;9.07;;;;;;;13.97;63.67;95373.00;5009372;28;20229;-72
2023/04/09 10:38:11;;;;;;;14.07;9.10;;;;;;;14.32;64.36;95381.41;5019047;28;20240;-72
2023/04/09 10:40:55;;;;;;;14.50;9.40;;;;;;;14.43;63.29;95377.25;5016225;28;20707;-72
2023/04/09 10:43:21;;;;;;;12.37;8.47;;;;;;;14.58;61.51;95370.69;5032547;28;20287;-72
2023/04/09 10:45:50;;;;;;;14.40;8.93;;;;;;;14.47;60.73;95375.84;5037559;28;20245;-71
2023/04/09 10:48:15;;;;;;;14.03;9.13;;;;;;;14.07;61.90;95377.81;5019626;28;20238;-72
2023/04/09 10:50:48;;;;;;;13.00;8.60;;;;;;;14.29;63.02;95360.72;5009545;28;21001;-72
2023/04/09 10:53:23;;;;;;;13.97;9.13;;;;;;;14.56;61.45;95356.13;5001957;28;20677;-72
2023/04/09 10:55:52;;;;;;;12.37;8.10;;;;;;;14.07;62.21;95362.84;5017037;28;20236;-73
2023/04/09 10:58:18;;;;;;;13.80;8.67;;;;;;;14.12;60.45;95357.75;5017106;28;20306;-71
2023/04/09 11:00:47;;;;;;;12.30;8.40;;;;;;;14.22;60.60;95349.41;5018931;28;20242;-73
2023/04/09 11:03:22;;;;;;;12.60;8.80;;;;;;;13.98;61.62;95350.13;5015262;28;20229;-71
2023/04/09 11:05:51;;;;;;;12.73;8.23;;;;;;;14.11;60.56;95350.09;5031038;28;20312;-71
2023/04/09 11:08:17;;;;;;;14.10;9.07;;;;;;;14.29;61.53;95341.47;5013444;28;21052;-72
2023/04/09 11:10:43;;;;;;;13.10;8.70;;;;;;;14.40;60.14;95338.22;4999023;28;20320;-71
2023/04/09 11:13:16;;;;;;;13.20;8.87;;;;;;;14.58;61.72;95336.44;5019335;28;20593;-72
2023/04/09 11:15:43;;;;;;;13.83;8.70;;;;;;;14.41;60.43;95340.63;5021027;28;20241;-72
2023/04/09 11:18:08;;;;;;;14.50;8.40;;;;;;;14.22;60.78;95341.50;5037176;28;20226;-71